sensor_id;sensor_type;location;lat;lon;timestamp;pressure;altitude;pressure_sealevel;temperature;humidity
75521;BME280;64102;48.628;9.002;2023-05-10T00:02:22;95470.19;;;11.89;100.00
75521;BME280;64102;48.628;9.002;2023-05-10T00:04:48;95480.53;;;11.89;100.00
75521;BME280;64102;48.628;9.002;2023-05-10T00:07:13;95477.47;;;11.86;100.00
75521;BME280;64102;48.628;9.002;2023-05-10T00:09:39;95480.03;;;11.86;100.00
75521;BME280;64102;48.628;9.002;2023-05-10T00:12:05;95473.09;;;11.86;100.00
75521;BME280;64102;48.628;9.002;2023-05-10T00:14:30;95480.66;;;11.88;100.00
75521;BME280;64102;48.628;9.002;2023-05-10T00:16:55;95477.59;;;11.84;100.00
75521;BME280;64102;48.628;9.002;2023-05-10T00:19:21;95465.66;;;11.75;100.00
75521;BME280;64102;48.628;9.002;2023-05-10T00:21:46;95469.97;;;11.66;100.00
75521;BME280;64102;48.628;9.002;2023-05-10T00:24:12;95475.63;;;11.62;100.00
75521;BME280;64102;48.628;9.002;2023-05-10T00:26:37;95479.97;;;11.53;100.00
75521;BME280;64102;48.628;9.002;2023-05-10T00:29:03;95482.69;;;11.52;100.00
75521;BME280;64102;48.628;9.002;2023-05-10T00:31:28;95476.09;;;11.49;100.00
75521;BME280;64102;48.628;9.002;2023-05-10T00:33:54;95479.63;;;11.48;100.00
75521;BME280;64102;48.628;9.002;2023-05-10T00:36:19;95476.56;;;11.45;100.00
75521;BME280;64102;48.628;9.002;2023-05-10T00:38:45;95475.13;;;11.42;100.00
75521;BME280;64102;48.628;9.002;2023-05-10T00:41:11;95486.75;;;11.38;100.00
75521;BME280;64102;48.628;9.002;2023-05-10T00:43:36;95472.03;;;11.39;100.00
75521;BME280;64102;48.628;9.002;2023-05-10T00:46:01;95493.50;;;11.39;100.00
75521;BME280;64102;48.628;9.002;2023-05-10T00:48:28;95490.09;;;11.39;100.00
75521;BME280;64102;48.628;9.002;2023-05-10T00:50:54;95488.00;;;11.34;100.00
75521;BME280;64102;48.628;9.002;2023-05-10T00:53:19;95494.16;;;11.33;100.00
75521;BME280;64102;48.628;9.002;2023-05-10T00:55:45;95494.28;;;11.32;100.00
75521;BME280;64102;48.628;9.002;2023-05-10T00:58:10;95494.28;;;11.32;100.00
75521;BME280;64102;48.628;9.002;2023-05-10T01:00:36;95494.63;;;11.29;100.00
75521;BME280;64102;48.628;9.002;2023-05-10T01:03:03;95494.09;;;11.25;100.00
75521;BME280;64102;48.628;9.002;2023-05-10T01:05:29;95500.25;;;11.24;100.00
75521;BME280;64102;48.628;9.002;2023-05-10T01:07:54;95505.41;;;11.24;100.00
75521;BME280;64102;48.628;9.002;2023-05-10T01:10:19;95490.88;;;11.23;100.00
75521;BME280;64102;48.628;9.002;2023-05-10T01:12:46;95502.84;;;11.24;100.00
75521;BME280;64102;48.628;9.002;2023-05-10T01:15:12;95511.22;;;11.26;100.00
75521;BME280;64102;48.628;9.002;2023-05-10T01:17:40;95506.06;;;11.26;100.00
75521;BME280;64102;48.628;9.002;2023-05-10T01:20:08;95511.88;;;11.20;100.00
75521;BME280;64102;48.628;9.002;2023-05-10T01:29:06;95516.19;;;11.11;100.00
75521;BME280;64102;48.628;9.002;2023-05-10T01:32:10;95520.69;;;11.09;100.00
75521;BME280;64102;48.628;9.002;2023-05-10T01:34:59;95524.91;;;11.10;100.00
75521;BME280;64102;48.628;9.002;2023-05-10T01:37:41;95518.91;;;11.10;100.00
75521;BME280;64102;48.628;9.002;2023-05-10T01:40:08;95515.84;;;11.06;100.00
75521;BME280;64102;48.628;9.002;2023-05-10T01:43:03;95520.47;;;11.03;100.00
75521;BME280;64102;48.628;9.002;2023-05-10T01:48:14;95524.53;;;10.97;100.00
75521;BME280;64102;48.628;9.002;2023-05-10T01:50:43;95528.19;;;10.95;100.00
75521;BME280;64102;48.628;9.002;2023-05-10T01:53:10;95527.72;;;10.91;100.00
75521;BME280;64102;48.628;9.002;2023-05-10T01:55:48;95524.16;;;10.92;100.00
75521;BME280;64102;48.628;9.002;2023-05-10T01:58:33;95528.84;;;10.89;100.00
75521;BME280;64102;48.628;9.002;2023-05-10T02:01:03;95535.91;;;10.87;100.00
75521;BME280;64102;48.628;9.002;2023-05-10T02:03:30;95538.81;;;10.84;100.00
75521;BME280;64102;48.628;9.002;2023-05-10T02:05:57;95543.47;;;10.80;100.00
75521;BME280;64102;48.628;9.002;2023-05-10T02:08:24;95545.38;;;10.78;100.00
75521;BME280;64102;48.628;9.002;2023-05-10T02:10:52;95553.25;;;10.76;100.00
75521;BME280;64102;48.628;9.002;2023-05-10T02:13:28;95543.63;;;10.78;100.00
75521;BME280;64102;48.628;9.002;2023-05-10T02:15:55;95556.53;;;10.78;100.00
75521;BME280;64102;48.628;9.002;2023-05-10T02:18:23;95558.78;;;10.82;100.00
75521;BME280;64102;48.628;9.002;2023-05-10T02:20:51;95551.72;;;10.84;100.00
75521;BME280;64102;48.628;9.002;2023-05-10T02:23:19;95552.66;;;10.83;100.00
75521;BME280;64102;48.628;9.002;2023-05-10T02:25:47;95560.72;;;10.80;100.00
75521;BME280;64102;48.628;9.002;2023-05-10T02:28:14;95560.06;;;10.77;100.00
75521;BME280;64102;48.628;9.002;2023-05-10T02:30:40;95567.16;;;10.75;100.00
75521;BME280;64102;48.628;9.002;2023-05-10T02:33:06;95566.16;;;10.76;100.00
75521;BME280;64102;48.628;9.002;2023-05-10T02:35:32;95568.72;;;10.68;100.00
75521;BME280;64102;48.628;9.002;2023-05-10T02:37:59;95569.53;;;10.69;100.00
75521;BME280;64102;48.628;9.002;2023-05-10T02:40:27;95572.41;;;10.66;100.00
75521;BME280;64102;48.628;9.002;2023-05-10T02:42:54;95568.72;;;10.68;100.00
75521;BME280;64102;48.628;9.002;2023-05-10T02:45:24;95568.41;;;10.71;100.00
75521;BME280;64102;48.628;9.002;2023-05-10T02:47:51;95575.34;;;10.71;100.00
75521;BME280;64102;48.628;9.002;2023-05-10T02:50:17;95572.47;;;10.74;100.00
75521;BME280;64102;48.628;9.002;2023-05-10T02:52:47;95571.34;;;10.76;100.00
75521;BME280;64102;48.628;9.002;2023-05-10T02:55:15;95568.94;;;10.75;100.00
75521;BME280;64102;48.628;9.002;2023-05-10T02:57:53;95566.16;;;10.76;100.00
75521;BME280;64102;48.628;9.002;2023-05-10T03:00:21;95573.91;;;10.76;100.00
75521;BME280;64102;48.628;9.002;2023-05-10T03:02:47;95573.41;;;10.73;100.00
75521;BME280;64102;48.628;9.002;2023-05-10T03:05:12;95570.03;;;10.72;100.00
75521;BME280;64102;48.628;9.002;2023-05-10T03:07:37;95572.91;;;10.69;100.00
75521;BME280;64102;48.628;9.002;2023-05-10T03:10:03;95573.56;;;10.71;100.00
75521;BME280;64102;48.628;9.002;2023-05-10T03:18:17;95576.31;;;10.70;100.00
75521;BME280;64102;48.628;9.002;2023-05-10T03:20:51;95581.00;;;10.74;100.00
75521;BME280;64102;48.628;9.002;2023-05-10T03:23:41;95575.34;;;10.71;100.00
75521;BME280;64102;48.628;9.002;2023-05-10T03:26:07;95580.34;;;10.72;100.00
75521;BME280;64102;48.628;9.002;2023-05-10T03:28:34;95578.72;;;10.71;100.00
75521;BME280;64102;48.628;9.002;2023-05-10T03:31:00;95576.31;;;10.70;100.00
75521;BME280;64102;48.628;9.002;2023-05-10T03:33:27;95577.72;;;10.64;100.00
75521;BME280;64102;48.628;9.002;2023-05-10T03:35:52;95581.56;;;10.60;100.00
75521;BME280;64102;48.628;9.002;2023-05-10T03:38:18;95584.97;;;10.61;100.00
75521;BME280;64102;48.628;9.002;2023-05-10T03:40:43;95584.50;;;10.65;100.00
75521;BME280;64102;48.628;9.002;2023-05-10T03:43:08;95597.53;;;10.64;100.00
75521;BME280;64102;48.628;9.002;2023-05-10T03:45:34;95596.09;;;10.61;100.00
75521;BME280;64102;48.628;9.002;2023-05-10T03:47:59;95599.94;;;10.57;100.00
75521;BME280;64102;48.628;9.002;2023-05-10T03:50:25;95594.41;;;10.52;100.00
75521;BME280;64102;48.628;9.002;2023-05-10T03:52:52;95592.41;;;10.46;100.00
75521;BME280;64102;48.628;9.002;2023-05-10T03:55:17;95590.16;;;10.43;100.00
75521;BME280;64102;48.628;9.002;2023-05-10T03:57:43;95591.25;;;10.41;100.00
75521;BME280;64102;48.628;9.002;2023-05-10T04:00:09;95595.59;;;10.40;100.00
75521;BME280;64102;48.628;9.002;2023-05-10T04:02:35;95585.44;;;10.39;100.00
75521;BME280;64102;48.628;9.002;2023-05-10T04:05:00;95586.88;;;10.41;100.00
75521;BME280;64102;48.628;9.002;2023-05-10T04:07:26;95587.72;;;10.42;100.00
75521;BME280;64102;48.628;9.002;2023-05-10T04:09:51;95590.16;;;10.43;100.00
75521;BME280;64102;48.628;9.002;2023-05-10T04:12:17;95595.00;;;10.46;100.00
75521;BME280;64102;48.628;9.002;2023-05-10T04:14:42;95601.78;;;10.47;100.00
75521;BME280;64102;48.628;9.002;2023-05-10T04:17:08;95596.47;;;10.49;100.00
75521;BME280;64102;48.628;9.002;2023-05-10T04:19:33;95595.38;;;10.51;100.00
75521;BME280;64102;48.628;9.002;2023-05-10T04:21:59;95596.03;;;10.53;100.00
75521;BME280;64102;48.628;9.002;2023-05-10T04:24:24;95595.59;;;10.58;100.00
75521;BME280;64102;48.628;9.002;2023-05-10T04:26:51;95599.63;;;10.60;100.00
75521;BME280;64102;48.628;9.002;2023-05-10T04:29:16;95599.47;;;10.62;100.00
75521;BME280;64102;48.628;9.002;2023-05-10T04:31:42;95600.13;;;10.64;100.00
75521;BME280;64102;48.628;9.002;2023-05-10T04:34:07;95601.91;;;10.63;100.00
75521;BME280;64102;48.628;9.002;2023-05-10T04:36:33;95606.41;;;10.61;100.00
75521;BME280;64102;48.628;9.002;2023-05-10T04:39:00;95601.06;;;10.63;100.00
75521;BME280;64102;48.628;9.002;2023-05-10T04:41:26;95608.19;;;10.61;100.00
75521;BME280;64102;48.628;9.002;2023-05-10T04:43:51;95602.41;;;10.67;100.00
75521;BME280;64102;48.628;9.002;2023-05-10T04:46:16;95603.75;;;10.71;100.00
75521;BME280;64102;48.628;9.002;2023-05-10T04:48:42;95597.75;;;10.70;100.00
75521;BME280;64102;48.628;9.002;2023-05-10T04:51:07;95593.25;;;10.72;100.00
75521;BME280;64102;48.628;9.002;2023-05-10T04:53:32;95604.59;;;10.80;100.00
75521;BME280;64102;48.628;9.002;2023-05-10T04:55:58;95606.06;;;10.82;100.00
75521;BME280;64102;48.628;9.002;2023-05-10T04:58:24;95603.63;;;10.81;100.00
75521;BME280;64102;48.628;9.002;2023-05-10T05:00:50;95608.78;;;10.81;100.00
75521;BME280;64102;48.628;9.002;2023-05-10T05:03:15;95609.44;;;10.83;100.00
75521;BME280;64102;48.628;9.002;2023-05-10T05:05:40;95615.94;;;10.87;100.00
75521;BME280;64102;48.628;9.002;2023-05-10T05:08:06;95609.81;;;10.88;100.00
75521;BME280;64102;48.628;9.002;2023-05-10T05:10:31;95611.06;;;10.84;100.00
75521;BME280;64102;48.628;9.002;2023-05-10T05:12:56;95620.28;;;10.86;100.00
75521;BME280;64102;48.628;9.002;2023-05-10T05:15:22;95620.28;;;10.86;100.00
75521;BME280;64102;48.628;9.002;2023-05-10T05:17:47;95624.03;;;10.92;100.00
75521;BME280;64102;48.628;9.002;2023-05-10T05:20:13;95620.78;;;10.90;100.00
75521;BME280;64102;48.628;9.002;2023-05-10T05:22:38;95623.88;;;10.93;100.00
75521;BME280;64102;48.628;9.002;2023-05-10T05:25:04;95627.94;;;10.96;100.00
75521;BME280;64102;48.628;9.002;2023-05-10T05:27:30;95629.56;;;10.97;100.00
75521;BME280;64102;48.628;9.002;2023-05-10T05:29:56;95628.75;;;10.96;100.00
75521;BME280;64102;48.628;9.002;2023-05-10T05:32:23;95628.59;;;10.98;100.00
75521;BME280;64102;48.628;9.002;2023-05-10T05:34:48;95630.38;;;10.97;100.00
75521;BME280;64102;48.628;9.002;2023-05-10T05:37:19;95633.81;;;11.06;100.00
75521;BME280;64102;48.628;9.002;2023-05-10T05:39:45;95635.13;;;11.10;100.00
75521;BME280;64102;48.628;9.002;2023-05-10T05:42:12;95634.16;;;11.11;100.00
75521;BME280;64102;48.628;9.002;2023-05-10T05:44:37;95635.75;;;11.12;100.00
75521;BME280;64102;48.628;9.002;2023-05-10T05:47:03;95637.28;;;11.22;100.00
75521;BME280;64102;48.628;9.002;2023-05-10T05:49:29;95640.41;;;11.34;100.00
75521;BME280;64102;48.628;9.002;2023-05-10T05:51:58;95643.34;;;11.39;100.00
75521;BME280;64102;48.628;9.002;2023-05-10T05:54:23;95649.00;;;11.43;100.00
75521;BME280;64102;48.628;9.002;2023-05-10T05:56:49;95634.47;;;11.42;100.00
75521;BME280;64102;48.628;9.002;2023-05-10T05:59:14;95642.88;;;11.44;100.00
75521;BME280;64102;48.628;9.002;2023-05-10T06:01:39;95642.72;;;11.45;100.00
75521;BME280;64102;48.628;9.002;2023-05-10T06:04:05;95648.84;;;11.44;100.00
75521;BME280;64102;48.628;9.002;2023-05-10T06:06:30;95644.53;;;11.53;100.00
75521;BME280;64102;48.628;9.002;2023-05-10T06:08:57;95652.47;;;11.51;100.00
75521;BME280;64102;48.628;9.002;2023-05-10T06:11:22;95656.19;;;11.57;100.00
75521;BME280;64102;48.628;9.002;2023-05-10T06:13:48;95656.69;;;11.60;100.00
75521;BME280;64102;48.628;9.002;2023-05-10T06:16:13;95670.19;;;11.72;100.00
75521;BME280;64102;48.628;9.002;2023-05-10T06:18:39;95663.06;;;11.74;100.00
75521;BME280;64102;48.628;9.002;2023-05-10T06:21:04;95667.75;;;11.79;100.00
75521;BME280;64102;48.628;9.002;2023-05-10T06:23:30;95663.59;;;11.86;100.00
75521;BME280;64102;48.628;9.002;2023-05-10T06:25:55;95671.72;;;11.99;100.00
75521;BME280;64102;48.628;9.002;2023-05-10T06:28:20;95675.13;;;12.07;100.00
75521;BME280;64102;48.628;9.002;2023-05-10T06:30:46;95680.34;;;12.16;100.00
75521;BME280;64102;48.628;9.002;2023-05-10T06:33:11;95678.09;;;12.37;100.00
75521;BME280;64102;48.628;9.002;2023-05-10T06:35:37;95680.53;;;12.46;100.00
75521;BME280;64102;48.628;9.002;2023-05-10T06:38:02;95684.13;;;12.53;100.00
75521;BME280;64102;48.628;9.002;2023-05-10T06:40:27;95681.06;;;12.58;100.00
75521;BME280;64102;48.628;9.002;2023-05-10T06:42:53;95690.44;;;12.59;100.00
75521;BME280;64102;48.628;9.002;2023-05-10T06:45:18;95690.75;;;12.64;100.00
75521;BME280;64102;48.628;9.002;2023-05-10T06:47:43;95689.31;;;12.70;100.00
75521;BME280;64102;48.628;9.002;2023-05-10T06:50:09;95692.38;;;12.57;100.00
75521;BME280;64102;48.628;9.002;2023-05-10T06:52:36;95685.09;;;12.69;100.00
75521;BME280;64102;48.628;9.002;2023-05-10T06:55:02;95682.22;;;12.72;100.00
75521;BME280;64102;48.628;9.002;2023-05-10T06:57:28;95681.53;;;12.78;100.00
75521;BME280;64102;48.628;9.002;2023-05-10T06:59:53;95680.25;;;12.82;99.26
75521;BME280;64102;48.628;9.002;2023-05-10T07:02:20;95687.38;;;12.80;98.36
75521;BME280;64102;48.628;9.002;2023-05-10T07:04:47;95679.28;;;12.83;98.72
75521;BME280;64102;48.628;9.002;2023-05-10T07:07:13;95680.91;;;12.92;97.79
75521;BME280;64102;48.628;9.002;2023-05-10T07:09:38;95674.75;;;12.85;95.59
75521;BME280;64102;48.628;9.002;2023-05-10T07:12:04;95684.78;;;13.04;94.80
75521;BME280;64102;48.628;9.002;2023-05-10T07:14:29;95684.97;;;13.11;95.06
75521;BME280;64102;48.628;9.002;2023-05-10T07:16:54;95683.47;;;13.08;94.49
75521;BME280;64102;48.628;9.002;2023-05-10T07:19:20;95689.97;;;13.20;94.75
75521;BME280;64102;48.628;9.002;2023-05-10T07:21:45;95684.00;;;13.20;94.25
75521;BME280;64102;48.628;9.002;2023-05-10T07:24:11;95688.03;;;13.14;92.98
75521;BME280;64102;48.628;9.002;2023-05-10T07:26:36;95680.88;;;13.08;93.23
75521;BME280;64102;48.628;9.002;2023-05-10T07:29:02;95698.22;;;12.91;93.29
75521;BME280;64102;48.628;9.002;2023-05-10T07:31:27;95693.38;;;12.96;92.94
75521;BME280;64102;48.628;9.002;2023-05-10T07:33:52;95685.59;;;12.96;92.18
75521;BME280;64102;48.628;9.002;2023-05-10T07:36:20;95695.63;;;12.91;91.84
75521;BME280;64102;48.628;9.002;2023-05-10T07:38:45;95693.19;;;13.06;91.06
75521;BME280;64102;48.628;9.002;2023-05-10T07:41:13;95696.91;;;13.03;90.56
75521;BME280;64102;48.628;9.002;2023-05-10T07:43:39;95698.22;;;12.91;90.20
75521;BME280;64102;48.628;9.002;2023-05-10T07:46:05;95699.06;;;13.16;89.16
75521;BME280;64102;48.628;9.002;2023-05-10T07:48:30;95695.81;;;13.14;89.31
75521;BME280;64102;48.628;9.002;2023-05-10T07:50:56;95698.06;;;13.33;88.96
75521;BME280;64102;48.628;9.002;2023-05-10T07:53:21;95698.00;;;13.50;88.81
75521;BME280;64102;48.628;9.002;2023-05-10T07:55:51;95699.78;;;13.49;87.70
75521;BME280;64102;48.628;9.002;2023-05-10T07:58:17;95703.34;;;13.64;86.74
75521;BME280;64102;48.628;9.002;2023-05-10T08:00:42;95703.16;;;13.58;86.95
75521;BME280;64102;48.628;9.002;2023-05-10T08:03:07;95697.84;;;13.51;87.42
75521;BME280;64102;48.628;9.002;2023-05-10T08:05:32;95702.16;;;13.75;86.77
75521;BME280;64102;48.628;9.002;2023-05-10T08:07:58;95701.97;;;13.84;85.42
75521;BME280;64102;48.628;9.002;2023-05-10T08:10:24;95702.56;;;13.95;84.88
75521;BME280;64102;48.628;9.002;2023-05-10T08:12:50;95707.03;;;13.78;84.45
75521;BME280;64102;48.628;9.002;2023-05-10T08:15:15;95701.22;;;14.07;83.39
75521;BME280;64102;48.628;9.002;2023-05-10T08:17:41;95702.06;;;14.30;80.55
75521;BME280;64102;48.628;9.002;2023-05-10T08:20:08;95698.69;;;14.60;80.31
75521;BME280;64102;48.628;9.002;2023-05-10T08:22:33;95703.66;;;14.70;78.89
75521;BME280;64102;48.628;9.002;2023-05-10T08:24:59;95703.94;;;14.75;76.78
75521;BME280;64102;48.628;9.002;2023-05-10T08:27:24;95712.03;;;14.80;77.22
75521;BME280;64102;48.628;9.002;2023-05-10T08:29:49;95710.47;;;14.94;77.54
75521;BME280;64102;48.628;9.002;2023-05-10T08:32:15;95714.50;;;14.96;75.41
75521;BME280;64102;48.628;9.002;2023-05-10T08:34:40;95717.09;;;14.96;77.15
75521;BME280;64102;48.628;9.002;2023-05-10T08:37:06;95717.06;;;14.82;75.83
75521;BME280;64102;48.628;9.002;2023-05-10T08:39:34;95716.47;;;14.94;74.78
75521;BME280;64102;48.628;9.002;2023-05-10T08:42:02;95722.13;;;14.75;76.08
75521;BME280;64102;48.628;9.002;2023-05-10T08:44:30;95717.84;;;14.82;74.58
75521;BME280;64102;48.628;9.002;2023-05-10T08:46:57;95719.75;;;14.88;73.25
75521;BME280;64102;48.628;9.002;2023-05-10T08:49:25;95725.16;;;15.01;72.43
75521;BME280;64102;48.628;9.002;2023-05-10T08:51:54;95734.22;;;15.05;72.06
75521;BME280;64102;48.628;9.002;2023-05-10T08:54:21;95736.31;;;15.10;72.89
75521;BME280;64102;48.628;9.002;2023-05-10T08:56:47;95729.91;;;15.20;71.99
75521;BME280;64102;48.628;9.002;2023-05-10T08:59:12;95729.84;;;15.06;72.77
75521;BME280;64102;48.628;9.002;2023-05-10T09:01:40;95734.34;;;15.12;72.61
75521;BME280;64102;48.628;9.002;2023-05-10T09:04:06;95737.28;;;15.09;72.38
75521;BME280;64102;48.628;9.002;2023-05-10T09:06:32;95736.22;;;15.03;73.26
75521;BME280;64102;48.628;9.002;2023-05-10T09:08:58;95739.63;;;15.04;72.39
75521;BME280;64102;48.628;9.002;2023-05-10T09:11:24;95735.91;;;14.98;73.20
75521;BME280;64102;48.628;9.002;2023-05-10T09:13:50;95742.56;;;15.01;72.90
75521;BME280;64102;48.628;9.002;2023-05-10T09:16:17;95737.13;;;15.10;71.50
75521;BME280;64102;48.628;9.002;2023-05-10T09:18:42;95740.06;;;15.30;71.09
75521;BME280;64102;48.628;9.002;2023-05-10T09:21:09;95742.31;;;15.71;69.79
75521;BME280;64102;48.628;9.002;2023-05-10T09:23:35;95736.38;;;15.91;69.33
75521;BME280;64102;48.628;9.002;2023-05-10T09:26:07;95739.44;;;16.09;65.35
75521;BME280;64102;48.628;9.002;2023-05-10T09:28:55;95740.72;;;16.49;64.61
75521;BME280;64102;48.628;9.002;2023-05-10T09:31:21;95736.31;;;16.50;62.56
75521;BME280;64102;48.628;9.002;2023-05-10T09:33:47;95744.47;;;16.62;61.18
75521;BME280;64102;48.628;9.002;2023-05-10T09:36:15;95750.22;;;16.57;61.12
75521;BME280;64102;48.628;9.002;2023-05-10T09:38:47;95747.97;;;16.54;62.76
75521;BME280;64102;48.628;9.002;2023-05-10T09:41:21;95750.00;;;16.37;63.26
75521;BME280;64102;48.628;9.002;2023-05-10T09:43:47;95751.75;;;16.66;64.13
75521;BME280;64102;48.628;9.002;2023-05-10T09:46:13;95754.00;;;16.54;63.39
75521;BME280;64102;48.628;9.002;2023-05-10T09:48:44;95750.22;;;16.06;65.31
75521;BME280;64102;48.628;9.002;2023-05-10T09:51:10;95747.59;;;15.92;63.20
75521;BME280;64102;48.628;9.002;2023-05-10T09:53:36;95754.63;;;15.54;63.50
75521;BME280;64102;48.628;9.002;2023-05-10T09:56:01;95751.09;;;15.84;63.76
75521;BME280;64102;48.628;9.002;2023-05-10T09:58:27;95749.47;;;15.83;62.74
75521;BME280;64102;48.628;9.002;2023-05-10T10:00:52;95751.19;;;16.05;62.96
75521;BME280;64102;48.628;9.002;2023-05-10T10:03:20;95741.69;;;16.63;60.34
75521;BME280;64102;48.628;9.002;2023-05-10T10:05:47;95751.78;;;17.09;59.13
75521;BME280;64102;48.628;9.002;2023-05-10T10:08:13;95748.81;;;17.61;57.58
75521;BME280;64102;48.628;9.002;2023-05-10T10:10:40;95746.28;;;18.43;55.33
75521;BME280;64102;48.628;9.002;2023-05-10T10:13:07;95749.63;;;18.77;52.65
75521;BME280;64102;48.628;9.002;2023-05-10T10:15:33;95738.28;;;19.44;52.47
75521;BME280;64102;48.628;9.002;2023-05-10T10:17:59;95739.66;;;19.60;50.57
75521;BME280;64102;48.628;9.002;2023-05-10T10:20:26;95740.91;;;20.41;50.38
75521;BME280;64102;48.628;9.002;2023-05-10T10:22:52;95733.06;;;20.41;45.97
75521;BME280;64102;48.628;9.002;2023-05-10T10:25:18;95747.06;;;20.02;47.66
75521;BME280;64102;48.628;9.002;2023-05-10T10:35:52;95740.34;;;18.68;50.12
75521;BME280;64102;48.628;9.002;2023-05-10T10:38:18;95746.06;;;17.69;54.50
75521;BME280;64102;48.628;9.002;2023-05-10T10:40:43;95762.09;;;16.30;56.13
75521;BME280;64102;48.628;9.002;2023-05-10T10:43:22;95759.63;;;15.18;57.81
75521;BME280;64102;48.628;9.002;2023-05-10T10:46:12;95768.28;;;13.87;63.95
75521;BME280;64102;48.628;9.002;2023-05-10T10:48:38;95786.59;;;13.05;75.21
75521;BME280;64102;48.628;9.002;2023-05-10T10:51:04;95787.56;;;12.29;81.80
75521;BME280;64102;48.628;9.002;2023-05-10T10:53:29;95787.13;;;12.00;84.33
75521;BME280;64102;48.628;9.002;2023-05-10T10:56:06;95792.97;;;11.76;85.99
75521;BME280;64102;48.628;9.002;2023-05-10T10:58:33;95791.22;;;11.77;89.52
75521;BME280;64102;48.628;9.002;2023-05-10T11:01:12;95789.34;;;11.87;88.46
75521;BME280;64102;48.628;9.002;2023-05-10T11:03:37;95787.88;;;11.92;88.95
75521;BME280;64102;48.628;9.002;2023-05-10T11:06:03;95783.31;;;12.12;89.28
75521;BME280;64102;48.628;9.002;2023-05-10T11:08:32;95780.38;;;12.07;86.09
75521;BME280;64102;48.628;9.002;2023-05-10T11:13:42;95779.56;;;12.06;85.54
75521;BME280;64102;48.628;9.002;2023-05-10T11:18:40;95785.13;;;12.78;85.06
75521;BME280;64102;48.628;9.002;2023-05-10T11:21:08;95781.97;;;13.16;81.03
75521;BME280;64102;48.628;9.002;2023-05-10T11:26:10;95776.72;;;14.36;74.99
75521;BME280;64102;48.628;9.002;2023-05-10T11:28:48;95773.31;;;14.36;74.04
75521;BME280;64102;48.628;9.002;2023-05-10T11:31:18;95792.66;;;14.64;74.53
75521;BME280;64102;48.628;9.002;2023-05-10T11:33:49;95794.06;;;14.97;68.92
75521;BME280;64102;48.628;9.002;2023-05-10T11:36:16;95797.09;;;14.78;68.56
75521;BME280;64102;48.628;9.002;2023-05-10T11:38:42;95795.38;;;14.70;68.24
75521;BME280;64102;48.628;9.002;2023-05-10T11:41:09;95804.22;;;14.84;69.00
75521;BME280;64102;48.628;9.002;2023-05-10T11:43:36;95802.66;;;14.75;68.00
75521;BME280;64102;48.628;9.002;2023-05-10T11:46:04;95793.66;;;14.86;66.48
75521;BME280;64102;48.628;9.002;2023-05-10T11:48:33;95794.44;;;15.17;66.05
75521;BME280;64102;48.628;9.002;2023-05-10T11:50:58;95792.91;;;15.22;65.51
75521;BME280;64102;48.628;9.002;2023-05-10T11:53:27;95797.75;;;15.48;62.30
75521;BME280;64102;48.628;9.002;2023-05-10T11:55:52;95794.88;;;15.66;62.29
75521;BME280;64102;48.628;9.002;2023-05-10T11:58:18;95796.88;;;15.93;62.34
75521;BME280;64102;48.628;9.002;2023-05-10T12:00:44;95801.00;;;15.50;62.24
75521;BME280;64102;48.628;9.002;2023-05-10T12:03:11;95794.59;;;15.38;62.47
75521;BME280;64102;48.628;9.002;2023-05-10T12:05:36;95799.72;;;15.23;61.40
75521;BME280;64102;48.628;9.002;2023-05-10T12:08:15;95801.47;;;15.08;62.91
75521;BME280;64102;48.628;9.002;2023-05-10T12:10:41;95802.44;;;14.85;63.50
75521;BME280;64102;48.628;9.002;2023-05-10T12:13:13;95800.84;;;14.45;62.28
75521;BME280;64102;48.628;9.002;2023-05-10T12:15:40;95797.50;;;14.20;64.60
75521;BME280;64102;48.628;9.002;2023-05-10T12:18:08;95803.84;;;14.17;63.87
75521;BME280;64102;48.628;9.002;2023-05-10T12:20:34;95801.25;;;14.17;65.11
75521;BME280;64102;48.628;9.002;2023-05-10T12:22:59;95805.75;;;14.40;64.84
75521;BME280;64102;48.628;9.002;2023-05-10T12:25:35;95809.00;;;14.42;64.34
75521;BME280;64102;48.628;9.002;2023-05-10T12:28:03;95808.25;;;14.87;63.32
75521;BME280;64102;48.628;9.002;2023-05-10T12:30:31;95806.44;;;14.95;63.80
75521;BME280;64102;48.628;9.002;2023-05-10T12:33:02;95811.16;;;15.60;63.18
75521;BME280;64102;48.628;9.002;2023-05-10T12:35:31;95804.50;;;16.24;61.64
75521;BME280;64102;48.628;9.002;2023-05-10T12:37:57;95807.00;;;16.18;57.59
75521;BME280;64102;48.628;9.002;2023-05-10T12:40:23;95802.44;;;16.20;58.43
75521;BME280;64102;48.628;9.002;2023-05-10T12:42:48;95812.03;;;16.34;56.64
75521;BME280;64102;48.628;9.002;2023-05-10T12:45:14;95799.84;;;16.05;56.30
75521;BME280;64102;48.628;9.002;2023-05-10T12:47:39;95794.63;;;15.76;58.95
75521;BME280;64102;48.628;9.002;2023-05-10T12:50:05;95803.81;;;15.63;59.19
75521;BME280;64102;48.628;9.002;2023-05-10T12:52:31;95804.41;;;15.51;59.66
75521;BME280;64102;48.628;9.002;2023-05-10T12:54:59;95812.06;;;15.52;59.10
75521;BME280;64102;48.628;9.002;2023-05-10T12:57:26;95808.31;;;15.47;59.10
75521;BME280;64102;48.628;9.002;2023-05-10T12:59:51;95807.00;;;15.28;59.80
75521;BME280;64102;48.628;9.002;2023-05-10T13:02:16;95812.66;;;15.54;57.62
75521;BME280;64102;48.628;9.002;2023-05-10T13:04:46;95806.38;;;15.86;55.07
75521;BME280;64102;48.628;9.002;2023-05-10T13:07:12;95810.81;;;16.15;53.21
75521;BME280;64102;48.628;9.002;2023-05-10T13:09:37;95806.41;;;16.16;54.71
75521;BME280;64102;48.628;9.002;2023-05-10T13:12:02;95808.06;;;15.94;54.86
75521;BME280;64102;48.628;9.002;2023-05-10T13:14:29;95808.81;;;15.88;55.22
75521;BME280;64102;48.628;9.002;2023-05-10T13:16:54;95807.88;;;15.81;53.56
75521;BME280;64102;48.628;9.002;2023-05-10T13:19:20;95807.63;;;15.90;53.96
75521;BME280;64102;48.628;9.002;2023-05-10T13:21:45;95809.88;;;16.08;54.35
75521;BME280;64102;48.628;9.002;2023-05-10T13:24:11;95804.75;;;16.00;53.90
75521;BME280;64102;48.628;9.002;2023-05-10T13:26:39;95804.03;;;16.21;52.51